Time;durP1;ratioP1;P1;durP2;ratioP2;P2;SDS_P1;SDS_P2;PMS_P1;PMS_P2;Temp;Humidity;BMP_temperature;BMP_pressure;BME280_temperature;BME280_humidity;BME280_pressure;Samples;Min_cycle;Max_cycle;Signal;HPM_P1;HPM_P2
2022/01/31 00:02:20;;;;;;;;;7.25;6.75;;;;;11.11;51.12;101764.38;5011704;28;45654;-85
2022/01/31 00:04:45;;;;;;;;;7.00;7.00;;;;;10.98;50.90;101750.72;5032141;28;45543;-84
2022/01/31 00:07:11;;;;;;;;;10.50;9.00;;;;;10.80;51.33;101731.00;5032265;28;45802;-84
2022/01/31 00:09:40;;;;;;;;;7.25;7.25;;;;;10.94;51.07;101749.97;5032096;28;46597;-84
2022/01/31 00:12:09;;;;;;;;;9.25;8.00;;;;;10.84;50.96;101736.16;5031751;28;46067;-84
2022/01/31 00:17:04;;;;;;;;;9.25;8.50;;;;;10.71;51.74;101721.63;5032376;28;45486;-84
2022/01/31 00:19:30;;;;;;;;;6.00;6.00;;;;;10.71;51.65;101723.44;5032573;28;45518;-84
2022/01/31 00:21:56;;;;;;;;;14.25;13.00;;;;;10.65;51.50;101709.44;5028433;28;45624;-84
2022/01/31 00:24:21;;;;;;;;;13.50;11.75;;;;;10.63;51.78;101689.09;5029575;28;45427;-85
2022/01/31 00:26:46;;;;;;;;;10.00;8.00;;;;;10.82;51.71;101715.84;5026628;28;45360;-84
2022/01/31 00:29:12;;;;;;;;;13.50;13.50;;;;;10.77;51.67;101692.06;5014997;28;45541;-84
2022/01/31 00:31:37;;;;;;;;;10.25;10.25;;;;;10.73;51.63;101671.81;5032315;28;45438;-84
2022/01/31 00:34:03;;;;;;;;;7.75;7.00;;;;;10.78;51.86;101687.63;5029936;28;45496;-84
2022/01/31 00:36:28;;;;;;;;;10.00;9.50;;;;;10.74;51.80;101678.88;5031604;28;45559;-84
2022/01/31 00:38:53;;;;;;;;;13.25;13.25;;;;;10.77;52.21;101669.88;5031033;28;45544;-84
2022/01/31 00:41:19;;;;;;;;;10.00;9.00;;;;;10.65;52.31;101676.59;5031452;28;45722;-84
2022/01/31 00:43:55;;;;;;;;;8.75;6.25;;;;;10.66;52.31;101686.34;5014505;28;45413;-83
2022/01/31 00:46:26;;;;;;;;;15.75;14.00;;;;;10.72;52.27;101695.84;5013989;28;45832;-83
2022/01/31 00:48:51;;;;;;;;;17.75;14.00;;;;;10.75;52.31;101693.94;5028696;28;48121;-84
2022/01/31 00:51:19;;;;;;;;;14.50;12.50;;;;;10.69;52.42;101691.53;5031370;28;45963;-83
2022/01/31 00:53:44;;;;;;;;;6.00;5.50;;;;;10.72;52.06;101685.19;5030692;28;45457;-84
2022/01/31 00:56:10;;;;;;;;;8.75;5.25;;;;;10.60;52.34;101665.25;5031893;28;45390;-84
2022/01/31 00:58:35;;;;;;;;;8.00;4.50;;;;;10.55;52.45;101691.22;5031968;28;45435;-84
2022/01/31 01:01:01;;;;;;;;;6.50;6.00;;;;;10.42;52.73;101662.44;5019519;28;45425;-84
2022/01/31 01:03:26;;;;;;;;;7.00;5.50;;;;;10.49;52.71;101665.72;5031972;28;45604;-84
2022/01/31 01:05:52;;;;;;;;;6.25;5.75;;;;;10.46;52.95;101641.88;5032789;28;45517;-84
2022/01/31 01:08:18;;;;;;;;;7.25;6.50;;;;;10.35;52.91;101622.84;5014163;28;47835;-85
2022/01/31 01:10:43;;;;;;;;;5.50;4.75;;;;;10.21;52.94;101592.28;5033302;28;45365;-84
2022/01/31 01:13:08;;;;;;;;;6.50;5.00;;;;;10.34;52.68;101634.38;5026267;28;45514;-84
2022/01/31 01:15:34;;;;;;;;;4.50;4.50;;;;;10.39;53.11;101651.03;5033143;28;45396;-83
2022/01/31 01:17:59;;;;;;;;;3.75;2.75;;;;;10.30;53.22;101630.16;5033376;28;46034;-84
2022/01/31 01:20:25;;;;;;;;;2.50;2.50;;;;;10.29;53.37;101607.09;5032649;28;45379;-84
2022/01/31 01:22:50;;;;;;;;;3.75;3.50;;;;;10.47;53.24;101614.34;5033266;28;45544;-84
2022/01/31 01:25:16;;;;;;;;;4.00;3.50;;;;;10.46;52.97;101604.59;5032876;28;45431;-84
2022/01/31 01:27:43;;;;;;;;;8.25;3.25;;;;;10.54;52.95;101617.63;5032903;28;45555;-84
2022/01/31 01:30:10;;;;;;;;;3.50;3.50;;;;;10.50;53.13;101616.88;5031573;28;45460;-84
2022/01/31 01:32:46;;;;;;;;;3.00;3.00;;;;;10.51;53.43;101604.41;5010867;28;45460;-85
2022/01/31 01:35:12;;;;;;;;;5.25;3.75;;;;;10.57;53.40;101588.19;5032546;28;45609;-84
2022/01/31 01:37:37;;;;;;;;;5.00;3.75;;;;;10.50;53.31;101579.59;5033561;28;46556;-84
2022/01/31 01:40:04;;;;;;;;;8.25;3.00;;;;;10.40;53.62;101557.81;5035590;28;45443;-84
2022/01/31 01:42:30;;;;;;;;;3.75;3.75;;;;;10.41;53.75;101551.59;5031229;28;45558;-85
2022/01/31 01:44:55;;;;;;;;;4.00;3.00;;;;;10.36;53.93;101568.66;5036512;28;45368;-84
2022/01/31 01:47:23;;;;;;;;;2.00;2.00;;;;;10.31;54.24;101554.69;5030822;28;45530;-83
2022/01/31 01:49:50;;;;;;;;;3.00;3.00;;;;;10.30;54.46;101548.50;5034587;28;45508;-84
2022/01/31 01:52:17;;;;;;;;;5.75;4.00;;;;;10.29;54.56;101540.56;5035807;28;45622;-84
2022/01/31 01:54:45;;;;;;;;;4.50;3.00;;;;;10.12;54.97;101547.41;5017851;28;45455;-84
2022/01/31 01:57:10;;;;;;;;;4.25;3.00;;;;;10.09;55.15;101549.34;5029770;28;45444;-85
2022/01/31 01:59:37;;;;;;;;;5.25;3.00;;;;;10.19;55.38;101553.38;5029746;28;45459;-84
2022/01/31 02:02:04;;;;;;;;;3.50;2.25;;;;;10.26;55.46;101575.28;5018950;28;45965;-84
2022/01/31 02:04:29;;;;;;;;;3.00;2.50;;;;;10.14;55.52;101540.25;5036155;28;45263;-84
2022/01/31 02:06:55;;;;;;;;;5.00;3.25;;;;;10.23;55.72;101552.31;5036015;28;45503;-84
2022/01/31 02:09:26;;;;;;;;;3.25;2.25;;;;;10.19;55.45;101556.88;5035824;28;45390;-84
2022/01/31 02:11:54;;;;;;;;;5.25;3.00;;;;;10.22;55.93;101550.56;5035937;28;45423;-84
2022/01/31 02:14:21;;;;;;;;;3.25;3.00;;;;;10.24;56.25;101554.91;5036247;28;45155;-84
2022/01/31 02:16:49;;;;;;;;;3.75;3.00;;;;;10.29;56.25;101538.78;5034043;28;46457;-84
2022/01/31 02:19:16;;;;;;;;;5.25;3.50;;;;;10.30;56.25;101529.00;5035738;28;45543;-84
2022/01/31 02:21:43;;;;;;;;;3.00;3.00;;;;;10.39;56.51;101544.56;5017315;28;45341;-84
2022/01/31 02:24:08;;;;;;;;;5.50;5.00;;;;;10.39;56.55;101528.59;5033574;28;45765;-84
2022/01/31 02:26:34;;;;;;;;;2.25;2.25;;;;;10.37;56.84;101514.53;5016377;28;46982;-83
2022/01/31 02:28:59;;;;;;;;;2.75;2.75;;;;;10.34;57.14;101503.97;5033604;28;45313;-83
2022/01/31 02:31:25;;;;;;;;;4.75;3.25;;;;;10.31;57.47;101504.13;5035879;28;45446;-85
2022/01/31 02:33:50;;;;;;;;;1.25;1.00;;;;;10.21;58.12;101496.50;5035212;28;45414;-85
2022/01/31 02:36:15;;;;;;;;;5.00;3.75;;;;;10.30;58.07;101489.09;5034811;28;54661;-85
2022/01/31 02:38:40;;;;;;;;;3.75;3.50;;;;;10.26;58.38;101479.47;5035231;28;45842;-85
2022/01/31 02:41:06;;;;;;;;;2.75;2.75;;;;;10.23;58.69;101472.50;5034836;28;45298;-84
2022/01/31 02:43:33;;;;;;;;;2.50;2.50;;;;;10.32;58.44;101490.75;5035215;28;45469;-83
2022/01/31 02:46:00;;;;;;;;;3.00;2.00;;;;;10.21;58.49;101456.59;5035351;28;45542;-85
2022/01/31 02:48:27;;;;;;;;;5.00;3.00;;;;;10.31;58.91;101473.03;5035164;28;45422;-85
2022/01/31 02:50:54;;;;;;;;;4.00;2.00;;;;;10.29;59.03;101464.25;5034806;28;45509;-85
2022/01/31 02:53:25;;;;;;;;;3.00;2.00;;;;;10.32;58.73;101452.63;5034768;28;45544;-85
2022/01/31 02:55:54;;;;;;;;;4.00;2.00;;;;;10.30;59.14;101462.50;5035474;28;45469;-85
2022/01/31 02:58:19;;;;;;;;;4.25;2.00;;;;;10.24;59.22;101459.09;5035210;28;45318;-84
2022/01/31 03:00:45;;;;;;;;;3.75;3.00;;;;;10.33;59.53;101459.69;5034937;28;45428;-83
2022/01/31 03:03:12;;;;;;;;;4.50;3.00;;;;;10.24;59.58;101453.78;5015942;28;45551;-84
2022/01/31 03:05:37;;;;;;;;;3.50;2.50;;;;;10.25;59.56;101460.00;5035018;28;46138;-83
2022/01/31 03:08:04;;;;;;;;;1.75;1.75;;;;;10.20;59.41;101430.06;5034078;28;45345;-83
2022/01/31 03:10:30;;;;;;;;;2.00;2.00;;;;;10.37;59.71;101437.34;5035606;28;45443;-83
2022/01/31 03:12:56;;;;;;;;;4.75;2.25;;;;;10.40;59.57;101429.22;5020088;28;45708;-83
2022/01/31 03:15:21;;;;;;;;;3.25;1.00;;;;;10.43;60.09;101429.06;5033777;28;46469;-84
2022/01/31 03:17:48;;;;;;;;;2.00;2.00;;;;;10.45;60.65;101416.56;5028005;28;45487;-83
2022/01/31 03:20:16;;;;;;;;;3.75;2.00;;;;;10.30;60.84;101410.13;5035297;28;45849;-84
2022/01/31 03:22:42;;;;;;;;;4.00;1.00;;;;;10.32;61.07;101413.59;5033348;28;45368;-84
2022/01/31 03:25:08;;;;;;;;;2.00;1.00;;;;;10.38;61.57;101421.28;5028145;28;45325;-83
2022/01/31 03:27:33;;;;;;;;;4.00;1.00;;;;;10.39;61.58;101411.50;5034761;28;45641;-84
2022/01/31 03:29:58;;;;;;;;;1.00;1.00;;;;;10.35;62.08;101409.94;5034728;28;45853;-84
2022/01/31 03:32:24;;;;;;;;;1.00;1.00;;;;;10.37;62.28;101422.22;5034573;28;50835;-83
2022/01/31 03:34:49;;;;;;;;;1.50;1.00;;;;;10.32;62.27;101420.69;5034693;28;48307;-84
2022/01/31 03:37:14;;;;;;;;;2.00;1.00;;;;;10.35;62.37;101412.59;5034100;28;45884;-84
2022/01/31 03:39:40;;;;;;;;;0.75;0.75;;;;;10.52;62.12;101430.47;5034772;28;45565;-84
2022/01/31 03:42:06;;;;;;;;;1.25;1.25;;;;;10.51;61.95;101410.09;5034495;28;45570;-84
2022/01/31 03:44:31;;;;;;;;;2.00;2.00;;;;;10.43;62.45;101389.13;5034578;28;46539;-82
2022/01/31 03:46:57;;;;;;;;;1.00;0.25;;;;;10.52;62.74;101391.41;5034103;28;45488;-83
2022/01/31 03:49:23;;;;;;;;;1.00;1.00;;;;;10.50;63.18;101381.75;5034783;28;45296;-84
2022/01/31 03:51:48;;;;;;;;;2.00;2.00;;;;;10.51;63.64;101388.78;5029995;28;45597;-84
2022/01/31 03:54:13;;;;;;;;;1.50;1.00;;;;;10.41;64.18;101378.59;5034117;28;45439;-84
2022/01/31 03:56:39;;;;;;;;;4.75;2.00;;;;;10.43;64.66;101397.97;5034051;28;45577;-84
2022/01/31 03:59:05;;;;;;;;;1.75;1.75;;;;;10.39;65.43;101380.44;5028339;28;45448;-84
2022/01/31 04:01:30;;;;;;;;;1.75;1.75;;;;;10.42;65.62;101384.75;5034432;28;45364;-84
2022/01/31 04:03:56;;;;;;;;;1.75;1.00;;;;;10.42;65.68;101388.28;5033685;28;45457;-86
2022/01/31 04:06:23;;;;;;;;;1.50;1.50;;;;;10.47;65.87;101392.53;5015432;28;45489;-85
2022/01/31 04:08:49;;;;;;;;;3.75;0.00;;;;;10.59;65.91;101405.28;5016094;28;45582;-85
2022/01/31 04:11:14;;;;;;;;;2.25;1.00;;;;;10.58;66.33;101409.75;5034508;28;45584;-85
2022/01/31 04:13:40;;;;;;;;;1.00;1.00;;;;;10.49;66.40;101399.53;5034555;28;46367;-85
2022/01/31 04:16:05;;;;;;;;;0.75;0.75;;;;;10.49;66.78;101394.19;5034050;28;45430;-85
2022/01/31 04:18:31;;;;;;;;;1.75;1.75;;;;;10.56;66.74;101414.28;5032915;28;45685;-85
2022/01/31 04:20:56;;;;;;;;;1.50;1.50;;;;;10.60;66.82;101405.22;5033908;28;45548;-85
2022/01/31 04:23:23;;;;;;;;;0.50;0.50;;;;;10.55;66.76;101393.06;5033237;28;45506;-85
2022/01/31 04:29:05;;;;;;;;;0.00;0.00;;;;;10.54;66.49;101381.53;5030934;28;45403;-85
2022/01/31 04:33:36;;;;;;;;;1.25;0.00;;;;;10.62;66.28;101384.72;5029159;28;45304;-85
2022/01/31 04:36:01;;;;;;;;;0.00;0.00;;;;;10.61;66.40;101371.47;5032347;28;45448;-85
2022/01/31 04:38:27;;;;;;;;;0.25;0.25;;;;;10.62;66.63;101390.03;5015685;28;45409;-85
2022/01/31 04:40:52;;;;;;;;;0.00;0.00;;;;;10.60;66.55;101372.41;5030723;28;45561;-85
2022/01/31 04:43:17;;;;;;;;;1.00;1.00;;;;;10.77;66.66;101392.91;5032858;28;45640;-85
2022/01/31 04:45:47;;;;;;;;;0.00;0.00;;;;;10.71;66.50;101386.09;5034156;28;45423;-85
2022/01/31 04:48:17;;;;;;;;;1.00;1.00;;;;;10.73;66.69;101402.00;5034169;28;45452;-85
2022/01/31 04:50:43;;;;;;;;;0.00;0.00;;;;;10.69;66.86;101392.44;5034970;28;45280;-85
2022/01/31 04:53:10;;;;;;;;;0.00;0.00;;;;;10.72;66.82;101398.47;5034170;28;45854;-86
2022/01/31 04:55:36;;;;;;;;;0.50;0.25;;;;;10.71;66.80;101385.22;5016849;28;45460;-85
2022/01/31 04:58:02;;;;;;;;;1.00;1.00;;;;;10.76;66.40;101389.41;5034446;28;45460;-85
2022/01/31 05:00:27;;;;;;;;;3.75;1.00;;;;;10.76;66.54;101369.91;5034666;28;45297;-85
2022/01/31 05:02:53;;;;;;;;;1.00;1.00;;;;;10.85;66.24;101374.81;5033621;28;45529;-85
2022/01/31 05:05:18;;;;;;;;;3.00;3.00;;;;;10.83;66.08;101374.88;5034044;28;45586;-85
2022/01/31 05:07:44;;;;;;;;;1.75;0.00;;;;;10.92;66.25;101386.00;5033885;28;45302;-85
2022/01/31 05:10:09;;;;;;;;;0.50;0.50;;;;;10.93;66.45;101401.94;5034500;28;45483;-85
2022/01/31 05:12:35;;;;;;;;;1.00;1.00;;;;;10.95;66.02;101388.56;5029694;28;45596;-85
2022/01/31 05:15:00;;;;;;;;;2.50;1.00;;;;;10.93;65.69;101403.75;5033760;28;45456;-85
2022/01/31 05:17:26;;;;;;;;;2.00;1.00;;;;;10.78;65.67;101384.00;5037368;28;45666;-85
2022/01/31 05:19:52;;;;;;;;;1.50;1.00;;;;;10.80;65.34;101398.09;5034377;28;45278;-85
2022/01/31 05:22:17;;;;;;;;;4.00;1.00;;;;;10.90;65.47;101415.41;5015225;28;47946;-84
2022/01/31 05:24:42;;;;;;;;;1.00;1.00;;;;;10.76;65.08;101393.88;5037051;28;45653;-85
2022/01/31 05:27:08;;;;;;;;;1.00;1.00;;;;;10.85;65.22;101409.44;5015675;28;45495;-85
2022/01/31 05:29:33;;;;;;;;;1.00;1.00;;;;;10.83;64.93;101411.28;5037919;28;45281;-85
2022/01/31 05:31:58;;;;;;;;;2.00;1.00;;;;;10.84;64.77;101423.66;5033558;28;54105;-86
2022/01/31 05:34:24;;;;;;;;;2.00;1.00;;;;;10.89;64.02;101442.94;5037267;28;45471;-85
2022/01/31 05:36:55;;;;;;;;;2.75;1.00;;;;;10.73;63.42;101416.19;5033842;28;45411;-85
2022/01/31 05:39:24;;;;;;;;;2.00;1.00;;;;;10.74;62.92;101441.00;5033560;28;45535;-85
2022/01/31 05:41:50;;;;;;;;;2.00;1.00;;;;;10.76;62.18;101437.34;5035377;28;46225;-85
2022/01/31 05:44:16;;;;;;;;;2.00;1.00;;;;;10.83;62.24;101444.09;5035820;28;45633;-86
2022/01/31 05:46:41;;;;;;;;;1.00;1.00;;;;;10.83;61.50;101433.47;5017525;28;45317;-85
2022/01/31 05:49:06;;;;;;;;;2.25;0.50;;;;;10.76;60.67;101412.50;5032260;28;46392;-85
2022/01/31 05:51:32;;;;;;;;;1.75;1.00;;;;;10.78;60.24;101424.81;5032644;28;59269;-85
2022/01/31 05:53:57;;;;;;;;;1.00;1.00;;;;;10.75;60.84;101421.41;5033693;28;45363;-84
2022/01/31 05:56:23;;;;;;;;;1.00;1.00;;;;;10.88;60.31;101422.59;5036599;28;45480;-84
2022/01/31 05:58:49;;;;;;;;;1.25;0.75;;;;;10.83;59.83;101437.94;5038346;28;45359;-84
2022/01/31 06:01:15;;;;;;;;;1.00;1.00;;;;;10.73;58.71;101428.63;5032160;28;45296;-84
2022/01/31 06:03:40;;;;;;;;;2.75;0.00;;;;;10.64;59.14;101406.81;5034784;28;45380;-84
2022/01/31 06:06:06;;;;;;;;;3.75;2.00;;;;;10.71;59.37;101411.88;5016347;28;45444;-84
2022/01/31 06:08:31;;;;;;;;;1.25;1.00;;;;;10.76;59.20;101426.69;5028264;28;45689;-84
2022/01/31 06:10:57;;;;;;;;;1.00;1.00;;;;;10.77;59.38;101432.88;5037268;28;45946;-84
2022/01/31 06:13:25;;;;;;;;;1.00;1.00;;;;;10.74;59.25;101407.25;5033946;28;45635;-85
2022/01/31 06:15:51;;;;;;;;;0.75;0.75;;;;;10.85;58.77;101428.94;5032241;28;45349;-85
2022/01/31 06:18:17;;;;;;;;;1.00;1.00;;;;;10.85;58.66;101439.59;5014586;28;45582;-84
2022/01/31 06:20:44;;;;;;;;;1.00;1.00;;;;;10.78;58.53;101450.59;5035204;28;45389;-84
2022/01/31 06:23:10;;;;;;;;;1.00;1.00;;;;;10.83;57.82;101464.56;5033062;28;45420;-84
2022/01/31 06:25:36;;;;;;;;;1.25;1.25;;;;;10.80;57.88;101462.00;5031979;28;45535;-84
2022/01/31 06:28:04;;;;;;;;;1.00;1.00;;;;;10.72;57.91;101438.41;5032393;28;45159;-84
2022/01/31 06:30:29;;;;;;;;;1.00;1.00;;;;;10.82;57.46;101437.06;5032133;28;46049;-84
2022/01/31 06:32:55;;;;;;;;;1.00;1.00;;;;;10.71;57.26;101431.34;5034900;28;45511;-84
2022/01/31 06:35:21;;;;;;;;;1.75;1.00;;;;;10.80;57.46;101427.38;5018309;28;45452;-85
2022/01/31 06:37:46;;;;;;;;;0.00;0.00;;;;;10.76;57.03;101432.00;5032922;28;45447;-85
2022/01/31 06:40:12;;;;;;;;;2.50;2.00;;;;;10.78;57.35;101440.81;5032025;28;45328;-84
2022/01/31 06:42:37;;;;;;;;;2.00;1.00;;;;;10.81;56.68;101437.97;5035671;28;45499;-84
2022/01/31 06:45:04;;;;;;;;;1.00;1.00;;;;;10.74;56.92;101431.22;5030876;28;45296;-84
2022/01/31 06:47:30;;;;;;;;;1.75;1.00;;;;;10.75;56.91;101435.63;5020590;28;45451;-84
2022/01/31 06:49:56;;;;;;;;;2.25;1.00;;;;;10.78;56.56;101440.81;5014465;28;47433;-84
2022/01/31 06:52:22;;;;;;;;;1.00;0.25;;;;;10.72;56.76;101451.72;5014634;28;45484;-84
2022/01/31 06:54:50;;;;;;;;;4.00;3.00;;;;;10.67;56.68;101421.78;5032160;28;45602;-84
2022/01/31 06:57:18;;;;;;;;;4.00;0.50;;;;;10.69;56.37;101429.69;5014185;28;45374;-85
2022/01/31 06:59:43;;;;;;;;;1.75;1.00;;;;;10.61;56.38;101433.56;5024746;28;45467;-85
2022/01/31 07:02:08;;;;;;;;;1.50;1.50;;;;;10.57;56.51;101441.75;5017223;28;45332;-85
2022/01/31 07:04:34;;;;;;;;;2.75;1.75;;;;;10.39;56.62;101416.81;5007158;28;45438;-85
2022/01/31 07:06:59;;;;;;;;;3.00;1.25;;;;;10.53;56.45;101438.34;5013605;28;50839;-85
2022/01/31 07:09:25;;;;;;;;;1.25;0.75;;;;;10.58;56.61;101460.34;5028259;28;45527;-85
2022/01/31 07:11:52;;;;;;;;;1.00;1.00;;;;;10.58;56.42;101457.69;5033275;28;45328;-85
2022/01/31 07:14:30;;;;;;;;;1.75;0.75;;;;;10.59;56.36;101446.09;5034171;28;45234;-84
2022/01/31 07:16:56;;;;;;;;;2.00;1.00;;;;;10.61;56.14;101460.19;5032227;28;45408;-85
2022/01/31 07:19:25;;;;;;;;;1.00;1.00;;;;;10.59;56.22;101472.72;5031346;28;45424;-85
2022/01/31 07:21:51;;;;;;;;;1.75;1.75;;;;;10.64;56.11;101476.03;5031153;28;45449;-85
2022/01/31 07:24:21;;;;;;;;;0.00;0.00;;;;;10.69;55.70;101480.28;5031401;28;46379;-85
2022/01/31 07:26:47;;;;;;;;;2.00;2.00;;;;;10.60;55.67;101486.88;5032241;28;45483;-85
2022/01/31 07:29:13;;;;;;;;;1.75;1.00;;;;;10.58;55.62;101478.09;5033014;28;45532;-85
2022/01/31 07:31:40;;;;;;;;;2.00;1.25;;;;;10.56;55.40;101475.53;5018550;28;45394;-85
2022/01/31 07:34:06;;;;;;;;;1.00;1.00;;;;;10.58;55.90;101465.66;5031343;28;45251;-85
2022/01/31 07:36:32;;;;;;;;;1.00;1.00;;;;;10.47;56.09;101467.94;5030213;28;45368;-85
2022/01/31 07:38:57;;;;;;;;;2.75;1.00;;;;;10.56;55.59;101472.84;5010580;28;46498;-85
2022/01/31 07:41:23;;;;;;;;;2.50;2.00;;;;;10.45;55.58;101461.81;5011608;28;45540;-85
2022/01/31 07:43:48;;;;;;;;;3.00;3.00;;;;;10.56;55.67;101485.28;5017047;28;45591;-85
2022/01/31 07:46:14;;;;;;;;;1.00;1.00;;;;;10.49;55.84;101489.16;5023504;28;45483;-84
2022/01/31 07:48:40;;;;;;;;;2.00;1.00;;;;;10.44;55.92;101476.91;5030993;28;46010;-85
2022/01/31 07:51:08;;;;;;;;;3.50;1.00;;;;;10.52;55.86;101507.66;5012932;28;45491;-85
2022/01/31 07:53:33;;;;;;;;;2.75;1.75;;;;;10.43;55.80;101488.47;5031154;28;45442;-85
2022/01/31 07:56:01;;;;;;;;;1.00;1.00;;;;;10.54;55.65;101489.84;5026846;28;45565;-85
2022/01/31 07:58:26;;;;;;;;;1.75;1.00;;;;;10.51;55.23;101500.59;5029337;28;51451;-85
2022/01/31 08:00:51;;;;;;;;;2.75;0.50;;;;;10.48;55.61;101509.56;5013002;28;45879;-86
2022/01/31 08:03:17;;;;;;;;;3.00;1.00;;;;;10.48;55.40;101517.56;5030174;28;45498;-84
2022/01/31 08:05:42;;;;;;;;;0.25;0.00;;;;;10.36;55.69;101529.59;5033117;28;45330;-85
2022/01/31 08:08:08;;;;;;;;;1.00;1.00;;;;;10.37;55.86;101536.66;5030888;28;46853;-86
2022/01/31 08:10:36;;;;;;;;;4.25;1.00;;;;;10.32;55.49;101535.13;5016111;28;45479;-86
2022/01/31 08:13:03;;;;;;;;;2.00;1.25;;;;;10.38;55.65;101541.03;5026988;28;45519;-85
2022/01/31 08:15:30;;;;;;;;;2.50;1.00;;;;;10.42;55.78;101539.13;5029094;28;45390;-85
2022/01/31 08:17:55;;;;;;;;;0.00;0.00;;;;;10.37;55.71;101520.69;5022423;28;45662;-86
2022/01/31 08:20:21;;;;;;;;;2.00;0.75;;;;;10.41;55.76;101530.28;5032915;28;45504;-85
2022/01/31 08:22:46;;;;;;;;;1.00;1.00;;;;;10.44;55.78;101516.00;5033876;28;45611;-85
2022/01/31 08:25:14;;;;;;;;;2.75;1.75;;;;;10.52;55.86;101531.63;5015989;28;45649;-84
2022/01/31 08:27:47;;;;;;;;;3.25;2.00;;;;;10.60;55.67;101554.31;5027214;28;47311;-84
2022/01/31 08:30:18;;;;;;;;;2.00;0.00;;;;;10.61;56.03;101523.25;5020231;28;45405;-85
2022/01/31 08:32:45;;;;;;;;;0.75;0.75;;;;;10.65;55.80;101519.50;5033662;28;45594;-86
2022/01/31 08:37:56;;;;;;;;;1.00;1.00;;;;;10.69;55.45;101531.75;5034219;28;45738;-85
2022/01/31 08:40:22;;;;;;;;;1.75;1.75;;;;;10.64;55.29;101531.09;5006688;28;46155;-85
2022/01/31 08:42:47;;;;;;;;;1.25;1.25;;;;;10.72;55.48;101530.75;5026289;28;45372;-85
2022/01/31 08:45:13;;;;;;;;;4.25;1.75;;;;;10.74;55.52;101537.72;5029809;28;46806;-85
2022/01/31 08:47:41;;;;;;;;;4.25;1.00;;;;;10.73;55.17;101533.34;5031571;28;45607;-84
2022/01/31 08:50:08;;;;;;;;;1.00;1.00;;;;;10.75;55.43;101547.47;5030009;28;45482;-84
2022/01/31 08:52:33;;;;;;;;;3.00;2.00;;;;;10.76;55.18;101566.97;5030028;28;45346;-85
2022/01/31 08:54:58;;;;;;;;;5.25;1.00;;;;;10.62;55.09;101554.25;5033009;28;45408;-85
2022/01/31 08:57:24;;;;;;;;;3.00;2.00;;;;;10.61;54.98;101565.84;5029329;28;45786;-85
2022/01/31 08:59:51;;;;;;;;;2.25;2.00;;;;;10.63;55.32;101570.16;5031971;28;45519;-85
2022/01/31 09:02:29;;;;;;;;;2.00;2.00;;;;;10.73;55.58;101562.66;5026280;28;49841;-84
2022/01/31 09:04:55;;;;;;;;;3.00;0.50;;;;;10.62;54.66;101551.59;5031599;28;45606;-84
2022/01/31 09:07:22;;;;;;;;;2.75;2.00;;;;;10.59;55.16;101536.59;5030170;28;45435;-84
2022/01/31 09:09:52;;;;;;;;;2.50;2.00;;;;;10.68;55.22;101542.44;5007776;28;45506;-85
2022/01/31 09:12:18;;;;;;;;;2.25;2.25;;;;;10.41;55.16;101494.81;5006493;28;45311;-85
2022/01/31 09:14:45;;;;;;;;;2.50;2.25;;;;;10.70;54.91;101536.13;5029326;28;45570;-84
2022/01/31 09:17:11;;;;;;;;;1.00;1.00;;;;;10.73;54.80;101541.34;5031339;28;46580;-85
2022/01/31 09:19:36;;;;;;;;;1.25;1.25;;;;;10.76;54.68;101557.19;5029893;28;45393;-84
2022/01/31 09:22:02;;;;;;;;;3.00;2.75;;;;;10.74;54.64;101531.53;5011665;28;45596;-85
2022/01/31 09:24:29;;;;;;;;;3.00;2.00;;;;;10.68;54.73;101523.81;5032241;28;45563;-85
2022/01/31 09:26:54;;;;;;;;;4.50;2.75;;;;;10.64;54.76;101521.28;5023237;28;46425;-84
2022/01/31 09:29:20;;;;;;;;;1.75;1.75;;;;;10.72;54.56;101528.94;5024847;28;45283;-85
2022/01/31 09:31:45;;;;;;;;;3.00;2.00;;;;;10.92;54.50;101544.06;5028490;28;45344;-86
2022/01/31 09:34:11;;;;;;;;;6.00;3.75;;;;;10.86;53.69;101534.53;5029940;28;45455;-84
2022/01/31 09:36:37;;;;;;;;;2.00;1.00;;;;;10.82;53.42;101530.28;5028772;28;46095;-83
2022/01/31 09:39:04;;;;;;;;;2.75;2.25;;;;;10.77;53.48;101540.25;5029295;28;45356;-84
2022/01/31 09:41:30;;;;;;;;;3.00;2.00;;;;;10.71;53.81;101527.22;5032769;28;45475;-85
2022/01/31 09:44:08;;;;;;;;;4.50;2.00;;;;;10.82;53.80;101542.72;5034119;28;45699;-84
2022/01/31 09:46:47;;;;;;;;;3.25;3.25;;;;;10.84;53.57;101548.84;5032790;28;47331;-82
2022/01/31 09:49:13;;;;;;;;;2.25;2.00;;;;;10.78;53.32;101538.47;5029832;28;45242;-83
2022/01/31 09:51:39;;;;;;;;;1.25;1.25;;;;;10.80;53.46;101545.47;5026937;28;45254;-84
2022/01/31 09:54:04;;;;;;;;;4.50;4.25;;;;;10.91;53.61;101531.66;5031444;28;45364;-84
2022/01/31 09:56:33;;;;;;;;;2.25;2.25;;;;;10.98;53.50;101545.56;5026557;28;45498;-84
2022/01/31 09:59:00;;;;;;;;;4.50;3.00;;;;;11.05;53.37;101553.22;5032259;28;45509;-84
2022/01/31 10:01:31;;;;;;;;;2.50;2.50;;;;;11.09;53.00;101589.47;5031923;28;45524;-84
2022/01/31 10:04:14;;;;;;;;;3.50;3.50;;;;;10.95;53.98;101540.38;5022620;28;45527;-84
2022/01/31 10:06:43;;;;;;;;;2.25;2.25;;;;;11.05;54.81;101560.34;5036582;28;45524;-84
2022/01/31 10:09:23;;;;;;;;;3.25;2.50;;;;;10.97;55.10;101544.72;5035564;28;45494;-84
2022/01/31 10:12:10;;;;;;;;;4.75;2.25;;;;;11.07;54.98;101575.34;5028231;28;45547;-85
2022/01/31 10:17:35;;;;;;;;;3.75;3.00;;;;;11.02;54.38;101568.50;5021554;28;45898;-85
2022/01/31 10:20:04;;;;;;;;;1.00;1.00;;;;;10.92;53.53;101592.00;5035056;28;45332;-85
2022/01/31 10:22:32;;;;;;;;;3.50;3.50;;;;;10.84;53.90;101576.34;5035140;28;45546;-84
2022/01/31 10:25:00;;;;;;;;;3.75;3.00;;;;;10.87;53.72;101597.53;5034449;28;45466;-85
2022/01/31 10:27:29;;;;;;;;;4.00;3.00;;;;;10.91;53.80;101610.72;5032123;28;46321;-85
2022/01/31 10:30:05;;;;;;;;;1.00;1.00;;;;;10.93;53.56;101603.53;5035431;28;45263;-85
2022/01/31 10:32:35;;;;;;;;;1.25;1.25;;;;;10.85;52.74;101602.06;5029463;28;45766;-84
2022/01/31 10:35:09;;;;;;;;;1.00;1.00;;;;;10.81;51.81;101587.13;5032847;28;45345;-84
2022/01/31 10:37:39;;;;;;;;;1.50;1.50;;;;;10.71;51.33;101588.47;5016447;28;47904;-85
2022/01/31 10:53:56;;;;;;;;;0.00;0.00;;;;;10.99;51.51;101577.47;5032956;28;45610;-85
2022/01/31 10:56:23;;;;;;;;;2.00;0.00;;;;;10.94;51.29;101555.47;5033285;28;46324;-84
2022/01/31 10:58:59;;;;;;;;;2.50;2.25;;;;;11.27;51.07;101609.06;5019757;28;45515;-85
2022/01/31 11:01:25;;;;;;;;;2.25;2.25;;;;;11.32;50.97;101616.88;5016451;28;45526;-84
2022/01/31 11:03:53;;;;;;;;;2.00;1.00;;;;;11.34;50.17;101606.16;5031304;28;45483;-83
2022/01/31 11:06:20;;;;;;;;;1.25;1.25;;;;;11.28;50.05;101616.16;5032344;28;45463;-83
2022/01/31 11:08:46;;;;;;;;;3.00;1.00;;;;;11.27;49.78;101610.88;5016859;28;47605;-83
2022/01/31 11:11:12;;;;;;;;;3.00;1.00;;;;;11.27;49.91;101609.06;5032890;28;46358;-83
2022/01/31 11:13:38;;;;;;;;;0.25;0.25;;;;;11.22;48.93;101607.56;5031079;28;45506;-83
2022/01/31 11:16:06;;;;;;;;;1.75;1.75;;;;;11.25;49.21;101605.59;5030857;28;45577;-84
2022/01/31 11:18:34;;;;;;;;;1.50;1.00;;;;;11.35;48.60;101591.88;5030277;28;45573;-83
2022/01/31 11:21:04;;;;;;;;;2.00;0.50;;;;;11.19;48.00;101576.59;5033072;28;45607;-84
2022/01/31 11:23:33;;;;;;;;;1.00;1.00;;;;;10.94;46.97;101566.13;5017331;28;45446;-85
2022/01/31 11:26:01;;;;;;;;;0.00;0.00;;;;;11.22;47.35;101621.75;5017500;28;45624;-85
2022/01/31 11:28:33;;;;;;;;;0.00;0.00;;;;;11.23;47.05;101623.50;5029879;28;45463;-85
2022/01/31 11:30:59;;;;;;;;;0.00;0.00;;;;;11.16;46.97;101611.38;5031404;28;45611;-85
2022/01/31 11:33:25;;;;;;;;;1.00;1.00;;;;;11.07;46.51;101596.66;5027672;28;45367;-83
2022/01/31 11:35:51;;;;;;;;;1.50;1.50;;;;;11.12;47.31;101585.78;5031533;28;45456;-83
2022/01/31 11:38:17;;;;;;;;;1.00;1.00;;;;;11.28;47.13;101607.25;5034655;28;45982;-86
2022/01/31 11:40:44;;;;;;;;;4.00;1.75;;;;;11.24;46.70;101614.56;5032668;28;45424;-83
2022/01/31 11:43:12;;;;;;;;;2.00;1.75;;;;;11.20;46.98;101593.44;5030697;28;45534;-84
2022/01/31 11:45:41;;;;;;;;;2.00;2.00;;;;;11.30;48.27;101653.38;5029568;28;45484;-84
2022/01/31 11:48:12;;;;;;;;;1.75;0.75;;;;;11.15;50.63;101630.09;5011830;28;46316;-87
2022/01/31 11:50:49;;;;;;;;;2.50;2.00;;;;;10.73;52.38;101612.38;5015437;28;45471;-84